Time;durP1;ratioP1;P1;durP2;ratioP2;P2;SDS_P1;SDS_P2;PMS_P1;PMS_P2;Temp;Humidity;BMP_temperature;BMP_pressure;BME280_temperature;BME280_humidity;BME280_pressure;Samples;Min_cycle;Max_cycle;Signal;HPM_P1;HPM_P2
2022/10/19 00:00:16;;;;;;;12.27;8.17;;;;;;;8.82;81.63;100053.31;5089004;28;20202;-60
2022/10/19 00:02:43;;;;;;;14.77;9.67;;;;;;;8.81;82.15;100054.19;5089165;28;20557;-60
2022/10/19 00:05:10;;;;;;;14.57;9.83;;;;;;;8.77;83.24;100049.97;5089278;28;20310;-60
2022/10/19 00:07:37;;;;;;;11.53;9.50;;;;;;;8.77;84.39;100056.00;5089387;28;20202;-60
2022/10/19 00:10:06;;;;;;;18.23;9.30;;;;;;;8.70;83.71;100044.00;5088828;28;20251;-60
2022/10/19 00:12:33;;;;;;;13.10;8.50;;;;;;;8.54;84.02;100016.63;5088775;28;20286;-55
2022/10/19 00:15:00;;;;;;;15.77;8.37;;;;;;;8.59;83.80;100033.78;5086962;28;20187;-61
2022/10/19 00:17:27;;;;;;;14.00;8.43;;;;;;;8.46;84.21;100034.81;5088121;28;20195;-54
2022/10/19 00:19:54;;;;;;;9.97;7.97;;;;;;;8.40;84.86;100034.88;5088951;28;20616;-60
2022/10/19 00:22:21;;;;;;;11.73;9.00;;;;;;;8.33;84.61;100023.75;5088892;28;20191;-55
2022/10/19 00:24:48;;;;;;;16.30;8.97;;;;;;;8.34;85.16;100014.28;5089082;28;20203;-56
2022/10/19 00:27:17;;;;;;;9.43;8.37;;;;;;;8.31;85.45;100009.09;5089108;28;20579;-55
2022/10/19 00:29:44;;;;;;;11.53;8.27;;;;;;;8.21;86.31;100008.34;5088643;28;20204;-55
2022/10/19 00:32:11;;;;;;;12.80;8.50;;;;;;;8.19;86.61;100010.09;5088887;28;20230;-60
2022/10/19 00:34:37;;;;;;;12.40;9.30;;;;;;;8.12;86.08;100010.19;5089064;28;20201;-60
2022/10/19 00:37:04;;;;;;;19.23;9.03;;;;;;;8.15;86.00;100005.81;5089493;28;20285;-55
2022/10/19 00:39:31;;;;;;;10.83;8.20;;;;;;;8.09;86.27;100003.31;5092774;28;20671;-60
2022/10/19 00:41:58;;;;;;;12.70;8.27;;;;;;;7.91;86.36;99981.09;5092385;28;20196;-60
2022/10/19 00:45:02;;;;;;;11.73;8.90;;;;;;;8.07;85.40;99989.53;5092421;28;20191;-60
2022/10/19 00:47:29;;;;;;;15.40;8.13;;;;;;;8.02;85.40;99993.91;5092203;28;20203;-60
2022/10/19 00:49:58;;;;;;;15.90;8.17;;;;;;;7.98;85.99;99993.09;5092079;28;20195;-59
2022/10/19 00:52:26;;;;;;;9.03;7.40;;;;;;;7.95;85.97;99982.78;5092006;28;20231;-60
2022/10/19 00:54:55;;;;;;;8.80;7.13;;;;;;;7.97;85.32;99975.88;5092297;28;20199;-55
2022/10/19 00:57:23;;;;;;;9.40;7.80;;;;;;;7.92;85.81;99969.03;5092088;28;20195;-60
2022/10/19 00:59:51;;;;;;;13.20;7.47;;;;;;;7.90;85.96;99971.63;5092004;28;20198;-56
2022/10/19 01:02:19;;;;;;;10.20;7.23;;;;;;;8.00;85.22;99965.50;5091946;28;20209;-61
2022/10/19 01:04:50;;;;;;;9.47;7.20;;;;;;;8.09;84.08;99961.94;5092072;28;20199;-60
2022/10/19 01:07:18;;;;;;;9.97;7.03;;;;;;;8.01;84.08;99959.44;5092042;28;20219;-60
2022/10/19 01:09:45;;;;;;;9.13;7.17;;;;;;;7.97;84.30;99952.59;5091911;28;20759;-58
2022/10/19 01:12:36;;;;;;;11.03;6.60;;;;;;;8.06;84.07;99953.38;5091946;28;20221;-54
2022/10/19 01:15:12;;;;;;;8.23;7.30;;;;;;;8.07;84.50;99957.66;5091343;28;20282;-54
2022/10/19 01:17:50;;;;;;;9.43;6.87;;;;;;;8.19;84.07;99952.34;5091695;28;20195;-55
2022/10/19 01:20:33;;;;;;;8.43;6.70;;;;;;;8.26;83.15;99943.63;5091814;28;20195;-56
2022/10/19 01:23:15;;;;;;;8.93;6.60;;;;;;;8.28;82.67;99945.34;5091419;28;20192;-56
2022/10/19 01:25:54;;;;;;;14.53;7.13;;;;;;;8.31;82.03;99942.75;5091680;28;20741;-55
2022/10/19 01:28:39;;;;;;;9.13;6.83;;;;;;;8.32;81.99;99944.47;5091754;28;20197;-55
2022/10/19 01:31:19;;;;;;;7.33;6.57;;;;;;;8.31;80.85;99941.84;5091443;28;20209;-60
2022/10/19 01:33:54;;;;;;;13.27;7.27;;;;;;;8.21;80.81;99941.13;5091727;28;20603;-55
2022/10/19 01:36:29;;;;;;;10.73;7.07;;;;;;;8.16;81.98;99931.69;5091493;28;20191;-55
2022/10/19 01:39:05;;;;;;;9.67;6.80;;;;;;;8.21;81.37;99940.25;5091215;28;20187;-60
2022/10/19 01:41:43;;;;;;;12.57;7.00;;;;;;;8.15;81.12;99932.56;5091228;28;20215;-60
2022/10/19 01:44:16;;;;;;;11.30;7.37;;;;;;;8.08;81.60;99933.53;5091269;28;20201;-60
2022/10/19 01:46:50;;;;;;;8.73;7.37;;;;;;;8.10;80.64;99934.38;5091072;28;20246;-55
2022/10/19 01:49:25;;;;;;;9.40;6.87;;;;;;;7.96;80.24;99927.63;5090124;28;20290;-56
2022/10/19 01:51:56;;;;;;;9.20;6.43;;;;;;;7.95;81.14;99931.09;5090588;28;20305;-55
2022/10/19 01:54:26;;;;;;;8.80;6.80;;;;;;;7.96;79.85;99924.19;5091049;28;20230;-55
2022/10/19 01:56:56;;;;;;;9.77;6.53;;;;;;;7.91;80.55;99928.53;5090946;28;20191;-55
2022/10/19 01:59:23;;;;;;;8.47;7.23;;;;;;;7.93;80.84;99926.78;5090915;28;20206;-55
2022/10/19 02:01:54;;;;;;;9.67;6.73;;;;;;;7.82;79.97;99900.22;5090781;28;20202;-55
2022/10/19 02:04:23;;;;;;;6.93;6.33;;;;;;;7.86;80.54;99920.00;5090852;28;20286;-55
2022/10/19 02:06:51;;;;;;;11.10;6.57;;;;;;;7.82;80.25;99908.84;5090660;28;20222;-55
2022/10/19 02:09:19;;;;;;;9.40;7.00;;;;;;;7.80;81.41;99913.16;5091093;28;20199;-55
2022/10/19 02:11:47;;;;;;;9.50;6.60;;;;;;;7.90;80.62;99912.16;5090855;28;20248;-54
2022/10/19 02:14:17;;;;;;;8.17;6.27;;;;;;;7.81;80.88;99896.78;5090931;28;20195;-60
2022/10/19 02:16:48;;;;;;;11.13;6.47;;;;;;;7.88;80.27;99907.91;5090647;28;20192;-60
2022/10/19 02:19:18;;;;;;;6.93;5.87;;;;;;;7.63;81.10;99887.53;5090695;28;20199;-60
2022/10/19 02:21:45;;;;;;;8.67;6.37;;;;;;;7.77;80.97;99896.84;5090815;28;20581;-55
2022/10/19 02:24:12;;;;;;;8.37;6.57;;;;;;;7.76;80.95;99898.56;5090403;28;20202;-55
2022/10/19 02:26:40;;;;;;;10.83;6.23;;;;;;;7.71;81.71;99902.06;5090489;28;20222;-55
2022/10/19 02:29:09;;;;;;;7.77;6.87;;;;;;;7.71;81.72;99879.69;5090359;28;20199;-55
2022/10/19 02:31:36;;;;;;;8.57;6.73;;;;;;;7.67;81.90;99888.34;5090303;28;20278;-56
2022/10/19 02:34:03;;;;;;;17.20;6.80;;;;;;;7.59;82.81;99892.72;5090103;28;20199;-56
2022/10/19 02:36:32;;;;;;;18.77;7.13;;;;;;;7.46;84.03;99883.38;5090506;28;20660;-57
2022/10/19 02:38:59;;;;;;;10.37;7.10;;;;;;;7.58;83.35;99888.44;5090203;28;20196;-56
2022/10/19 02:41:31;;;;;;;8.93;6.70;;;;;;;7.59;83.99;99891.00;5090060;28;20195;-55
2022/10/19 02:44:03;;;;;;;12.87;6.70;;;;;;;7.54;84.50;99887.63;5090047;28;20612;-56
2022/10/19 02:46:36;;;;;;;12.77;6.47;;;;;;;7.58;83.34;99885.84;5089784;28;20229;-55
2022/10/19 02:49:04;;;;;;;7.67;6.77;;;;;;;7.63;83.62;99882.34;5089841;28;20202;-54
2022/10/19 02:51:35;;;;;;;9.67;6.67;;;;;;;7.63;83.07;99873.75;5089787;28;20230;-55
2022/10/19 02:54:02;;;;;;;10.80;6.50;;;;;;;7.61;82.66;99870.31;5089482;28;20206;-60
2022/10/19 02:56:29;;;;;;;12.10;7.00;;;;;;;7.64;82.09;99875.47;5089895;28;20203;-60
2022/10/19 02:58:57;;;;;;;10.30;6.87;;;;;;;7.55;82.70;99865.25;5089276;28;20697;-60
2022/10/19 03:01:24;;;;;;;8.40;6.87;;;;;;;7.54;83.22;99868.69;5089462;28;20201;-56
2022/10/19 03:03:51;;;;;;;11.60;6.77;;;;;;;7.57;83.00;99873.78;5089739;28;20243;-55
2022/10/19 03:06:18;;;;;;;9.27;7.00;;;;;;;7.62;83.66;99864.28;5089306;28;20223;-55
2022/10/19 03:08:46;;;;;;;9.50;6.53;;;;;;;7.57;83.23;99866.91;5089846;28;20197;-55
2022/10/19 03:11:13;;;;;;;10.77;7.00;;;;;;;7.51;83.71;99863.56;5089395;28;20206;-55
2022/10/19 03:13:41;;;;;;;8.40;6.23;;;;;;;7.41;83.08;99859.34;5089805;28;20203;-55
2022/10/19 03:16:09;;;;;;;7.37;6.10;;;;;;;7.34;84.06;99861.13;5089040;28;20230;-56
2022/10/19 03:18:36;;;;;;;9.67;7.03;;;;;;;7.34;83.73;99861.13;5089484;28;20681;-55
2022/10/19 03:21:05;;;;;;;10.20;6.57;;;;;;;7.35;83.70;99868.00;5088005;28;20600;-56
2022/10/19 03:23:32;;;;;;;11.07;7.47;;;;;;;7.29;83.26;99852.59;5088535;28;20198;-56
2022/10/19 03:26:00;;;;;;;15.20;7.10;;;;;;;7.25;84.35;99862.09;5087665;28;20195;-54
2022/10/19 03:28:27;;;;;;;10.00;7.07;;;;;;;7.19;84.76;99851.81;5088006;28;20191;-55
2022/10/19 03:30:54;;;;;;;10.07;6.70;;;;;;;7.29;85.11;99853.44;5085291;28;20276;-55
2022/10/19 03:33:21;;;;;;;8.83;6.73;;;;;;;7.41;83.95;99859.34;5087876;28;20227;-56
2022/10/19 03:35:49;;;;;;;8.57;6.77;;;;;;;7.41;84.07;99851.59;5088066;28;20198;-55
2022/10/19 03:38:16;;;;;;;10.60;7.10;;;;;;;7.28;85.14;99851.72;5087937;28;20198;-55
2022/10/19 03:40:43;;;;;;;9.03;6.20;;;;;;;7.39;85.52;99853.34;5087860;28;20202;-60
2022/10/19 03:43:11;;;;;;;8.27;6.30;;;;;;;7.36;84.77;99853.38;5086991;28;20693;-62
2022/10/19 03:45:38;;;;;;;10.27;6.50;;;;;;;7.38;84.47;99849.91;5087723;28;20592;-61
2022/10/19 03:48:05;;;;;;;8.90;7.03;;;;;;;7.28;84.47;99837.97;5088673;28;20223;-60
2022/10/19 03:50:32;;;;;;;8.33;6.40;;;;;;;7.34;84.64;99850.78;5089208;28;20230;-60
2022/10/19 03:52:59;;;;;;;8.33;6.27;;;;;;;7.18;84.87;99819.13;5088969;28;20622;-61
2022/10/19 03:55:26;;;;;;;8.00;6.60;;;;;;;7.31;85.06;99847.41;5089638;28;20586;-61
2022/10/19 03:57:53;;;;;;;7.40;6.47;;;;;;;7.20;84.71;99822.56;5089376;28;20197;-61
2022/10/19 04:00:22;;;;;;;11.00;6.27;;;;;;;7.24;85.18;99842.28;5088795;28;20294;-62
2022/10/19 04:02:49;;;;;;;10.10;7.00;;;;;;;7.28;84.82;99838.81;5089048;28;20584;-61
2022/10/19 04:05:16;;;;;;;9.67;6.57;;;;;;;7.25;85.57;99840.56;5089425;28;20241;-60
2022/10/19 04:07:42;;;;;;;10.77;6.27;;;;;;;7.28;85.31;99830.22;5089928;28;20611;-60
2022/10/19 04:10:10;;;;;;;6.33;5.73;;;;;;;7.32;85.76;99836.22;5088561;28;20197;-58
2022/10/19 04:12:36;;;;;;;9.67;7.20;;;;;;;7.27;85.35;99834.53;5091044;28;20188;-59
2022/10/19 04:15:04;;;;;;;11.73;7.37;;;;;;;7.19;86.21;99826.00;5092427;28;20199;-58
2022/10/19 04:17:32;;;;;;;17.77;7.47;;;;;;;7.23;86.45;99835.41;5092154;28;20194;-60
2022/10/19 04:19:59;;;;;;;11.33;6.37;;;;;;;7.17;86.20;99812.25;5092585;28;20205;-59
2022/10/19 04:22:26;;;;;;;14.50;7.43;;;;;;;7.23;86.13;99827.66;5092854;28;20199;-58
2022/10/19 04:24:54;;;;;;;8.27;6.97;;;;;;;7.11;86.35;99811.47;5081087;28;20629;-53
2022/10/19 04:27:20;;;;;;;12.43;6.97;;;;;;;7.03;87.33;99802.94;5071965;28;20315;-53
2022/10/19 04:29:47;;;;;;;16.30;7.73;;;;;;;7.00;87.17;99821.88;5071780;28;20238;-53
2022/10/19 04:32:14;;;;;;;15.00;7.17;;;;;;;6.97;87.49;99819.34;5092439;28;20233;-51
2022/10/19 04:34:42;;;;;;;15.40;7.23;;;;;;;7.05;88.20;99820.13;5091728;28;20217;-52
2022/10/19 04:37:09;;;;;;;12.23;7.63;;;;;;;7.07;88.46;99815.81;5093380;28;20237;-56
2022/10/19 04:39:39;;;;;;;10.57;8.43;;;;;;;7.16;88.72;99810.56;5090995;28;20710;-61
2022/10/19 04:42:06;;;;;;;16.53;7.83;;;;;;;7.24;87.95;99806.16;5092136;28;20675;-60
2022/10/19 04:44:33;;;;;;;14.87;7.83;;;;;;;7.31;87.53;99803.53;5091772;28;20639;-59
2022/10/19 04:47:00;;;;;;;12.17;7.13;;;;;;;7.45;86.71;99806.81;5091231;28;20234;-59
2022/10/19 04:49:27;;;;;;;9.87;7.53;;;;;;;7.50;85.89;99805.00;5091983;28;20203;-55
2022/10/19 04:51:55;;;;;;;10.23;7.73;;;;;;;7.52;85.73;99800.69;5092150;28;20293;-55
2022/10/19 04:54:22;;;;;;;8.27;7.40;;;;;;;7.50;85.64;99798.13;5089520;28;20196;-60
2022/10/19 04:56:50;;;;;;;9.20;7.23;;;;;;;7.61;85.05;99798.00;5091102;28;20283;-60
2022/10/19 04:59:16;;;;;;;13.03;7.33;;;;;;;7.65;84.30;99805.69;5091347;28;20223;-59
2022/10/19 05:01:43;;;;;;;13.57;7.57;;;;;;;7.71;84.14;99801.31;5090639;28;20195;-61
2022/10/19 05:04:10;;;;;;;15.43;8.03;;;;;;;7.75;84.50;99801.25;5071160;28;20307;-59
2022/10/19 05:06:37;;;;;;;15.37;7.83;;;;;;;7.89;84.08;99796.78;5070755;28;20332;-56
2022/10/19 05:09:06;;;;;;;12.00;7.77;;;;;;;8.05;83.31;99805.16;5070088;28;20304;-55
2022/10/19 05:11:33;;;;;;;14.63;8.17;;;;;;;8.50;80.98;99803.66;5070373;28;20346;-55
2022/10/19 05:14:00;;;;;;;14.40;7.73;;;;;;;9.23;77.84;99809.31;5070013;28;20220;-55
2022/10/19 05:16:27;;;;;;;17.57;8.70;;;;;;;10.38;71.22;99808.66;5083917;28;20215;-55
2022/10/19 05:18:57;;;;;;;14.57;8.67;;;;;;;11.51;65.23;99804.00;5087063;28;20226;-55
2022/10/19 05:21:26;;;;;;;11.07;7.80;;;;;;;12.55;60.63;99809.53;5090793;28;20227;-56
2022/10/19 05:23:54;;;;;;;13.57;8.57;;;;;;;13.52;55.12;99810.59;5089822;28;20278;-55
2022/10/19 05:26:24;;;;;;;11.57;7.20;;;;;;;14.68;52.31;99807.84;5090209;28;20227;-55
2022/10/19 05:28:55;;;;;;;14.67;7.67;;;;;;;15.76;48.26;99813.69;5089651;28;20223;-55
2022/10/19 05:31:23;;;;;;;10.90;7.17;;;;;;;17.19;44.85;99817.25;5090767;28;21427;-60
2022/10/19 05:33:51;;;;;;;11.30;7.77;;;;;;;18.65;41.05;99811.97;5090145;28;20215;-60
2022/10/19 05:36:19;;;;;;;13.53;7.77;;;;;;;19.57;38.55;99824.06;5090860;28;20219;-60
2022/10/19 05:38:48;;;;;;;8.93;7.78;;;;;;;20.85;36.27;99823.84;5107296;28;20218;-55
2022/10/19 05:41:16;;;;;;;8.40;7.18;;;;;;;21.76;33.94;99834.41;5110066;28;20297;-55
2022/10/19 05:43:45;;;;;;;12.35;7.50;;;;;;;21.92;33.31;99840.31;5110871;28;20228;-56
2022/10/19 05:46:16;;;;;;;17.67;8.20;;;;;;;22.84;31.88;99840.69;5111180;28;20285;-55
2022/10/19 05:48:43;;;;;;;17.02;7.70;;;;;;;23.83;30.63;99830.47;5111177;28;20218;-60
2022/10/19 05:51:12;;;;;;;18.00;8.10;;;;;;;24.95;29.22;99834.63;5110796;28;20321;-60
2022/10/19 05:53:40;;;;;;;12.07;7.05;;;;;;;25.27;27.93;99818.66;5111321;28;20286;-55
2022/10/19 05:56:09;;;;;;;13.18;7.45;;;;;;;25.43;28.12;99846.56;5111069;28;20773;-55
2022/10/19 05:58:36;;;;;;;11.93;7.55;;;;;;;25.57;27.52;99849.75;5111354;28;20281;-56
2022/10/19 06:01:05;;;;;;;17.45;7.13;;;;;;;26.08;27.19;99856.00;5110878;28;20199;-56
2022/10/19 06:03:32;;;;;;;12.55;7.53;;;;;;;26.58;26.20;99844.41;5111492;28;20286;-56
2022/10/19 06:05:59;;;;;;;15.90;7.53;;;;;;;27.00;25.70;99830.84;5111048;28;20286;-56
2022/10/19 06:08:26;;;;;;;12.93;7.63;;;;;;;27.32;25.39;99847.38;5110378;28;20309;-56
2022/10/19 06:10:53;;;;;;;12.70;7.22;;;;;;;27.45;24.85;99845.25;5110118;28;20202;-61
2022/10/19 06:13:20;;;;;;;8.40;7.22;;;;;;;27.09;25.46;99843.31;5110360;28;20201;-61
2022/10/19 06:15:51;;;;;;;16.48;9.07;;;;;;;27.96;24.29;99835.16;5110039;28;20205;-61
2022/10/19 06:18:24;;;;;;;26.30;20.88;;;;;;;28.97;23.36;99837.66;5110419;28;20190;-61
2022/10/19 06:20:52;;;;;;;28.60;22.55;;;;;;;28.89;22.68;99835.72;5109807;28;20206;-62
2022/10/19 06:23:18;;;;;;;16.33;10.73;;;;;;;29.28;22.97;99827.38;5109841;28;20201;-61
2022/10/19 06:25:45;;;;;;;12.48;10.95;;;;;;;30.31;22.02;99847.88;5110072;28;20264;-61
2022/10/19 06:28:12;;;;;;;10.65;8.68;;;;;;;30.91;20.91;99851.22;5109689;28;20225;-61
2022/10/19 06:30:39;;;;;;;14.98;10.00;;;;;;;31.47;20.90;99849.56;5076998;28;20211;-60
2022/10/19 06:33:07;;;;;;;10.75;8.70;;;;;;;31.24;20.86;99844.06;5068504;28;20220;-61
2022/10/19 06:35:37;;;;;;;10.93;7.63;;;;;;;32.33;20.09;99836.22;5068132;28;20319;-60
2022/10/19 06:38:04;;;;;;;8.60;7.85;;;;;;;32.53;19.92;99843.84;5083922;28;20203;-62
2022/10/19 06:40:31;;;;;;;10.07;7.93;;;;;;;31.32;20.43;99836.00;5088804;28;20285;-62
2022/10/19 06:42:57;;;;;;;15.15;8.90;;;;;;;28.28;22.59;99802.72;5088833;28;20589;-62
2022/10/19 06:45:24;;;;;;;10.48;8.52;;;;;;;25.03;26.33;99811.91;5089065;28;20295;-61
2022/10/19 06:47:51;;;;;;;11.82;8.55;;;;;;;23.22;28.62;99807.84;5088526;28;20626;-62
2022/10/19 06:50:19;;;;;;;13.43;7.25;;;;;;;21.41;31.04;99802.50;5088730;28;20203;-61
2022/10/19 06:52:47;;;;;;;15.88;8.40;;;;;;;19.94;33.56;99801.59;5088318;28;20225;-55
2022/10/19 06:55:16;;;;;;;10.68;7.95;;;;;;;18.83;35.65;99802.19;5088628;28;20213;-55
2022/10/19 06:57:43;;;;;;;18.63;13.15;;;;;;;18.09;37.17;99794.09;5088715;28;20197;-55
2022/10/19 07:00:12;;;;;;;17.15;8.93;;;;;;;17.47;38.25;99766.81;5088444;28;20191;-55
2022/10/19 07:02:39;;;;;;;20.83;8.60;;;;;;;17.26;39.30;99799.44;5088675;28;20198;-55
2022/10/19 07:05:07;;;;;;;15.73;7.68;;;;;;;16.64;40.26;99798.19;5089414;28;20235;-55
2022/10/19 07:07:34;;;;;;;20.67;8.45;;;;;;;16.20;41.36;99772.34;5089740;28;20681;-56
2022/10/19 07:10:03;;;;;;;21.03;10.60;;;;;;;15.92;42.64;99785.84;5089346;28;20191;-55
2022/10/19 07:12:30;;;;;;;20.03;12.30;;;;;;;15.62;43.59;99795.13;5089663;28;20282;-55
2022/10/19 07:14:57;;;;;;;19.23;9.13;;;;;;;15.68;43.65;99792.25;5089526;28;20203;-55
2022/10/19 07:17:24;;;;;;;15.77;9.60;;;;;;;15.73;44.13;99787.63;5089254;28;20199;-54
2022/10/19 07:19:51;;;;;;;10.27;7.90;;;;;;;15.47;43.64;99777.44;5089500;28;20676;-54
2022/10/19 07:22:17;;;;;;;9.33;7.20;;;;;;;15.35;44.52;99781.44;5089568;28;20199;-55
2022/10/19 07:24:45;;;;;;;15.30;7.30;;;;;;;15.01;45.01;99745.47;5089577;28;20664;-55
2022/10/19 07:27:13;;;;;;;17.30;7.47;;;;;;;15.36;44.33;99780.53;5089098;28;20578;-54
2022/10/19 07:29:40;;;;;;;10.23;6.33;;;;;;;15.34;44.47;99781.56;5089294;28;20248;-55
2022/10/19 07:32:07;;;;;;;15.63;7.63;;;;;;;15.18;45.23;99773.50;5088986;28;20675;-55
2022/10/19 07:34:34;;;;;;;10.57;7.00;;;;;;;15.12;45.31;99766.75;5089544;28;20195;-54
2022/10/19 07:37:01;;;;;;;26.67;18.40;;;;;;;15.14;45.93;99753.63;5089308;28;20611;-54
2022/10/19 07:39:28;;;;;;;17.63;12.37;;;;;;;14.82;45.88;99758.47;5089482;28;20257;-55
2022/10/19 07:41:55;;;;;;;11.00;8.00;;;;;;;14.75;46.27;99750.97;5088992;28;20217;-55
2022/10/19 07:44:24;;;;;;;11.23;7.33;;;;;;;14.37;47.45;99750.75;5088987;28;20195;-55
2022/10/19 07:46:50;;;;;;;15.83;7.57;;;;;;;14.43;46.69;99750.56;5089913;28;20667;-56
2022/10/19 07:49:18;;;;;;;9.13;6.87;;;;;;;14.60;46.97;99736.78;5093161;28;20254;-55
2022/10/19 07:51:46;;;;;;;8.70;6.60;;;;;;;14.56;46.89;99740.44;5093295;28;20235;-55
2022/10/19 07:54:13;;;;;;;12.60;7.50;;;;;;;14.68;46.54;99744.28;5092956;28;20574;-55
2022/10/19 07:56:40;;;;;;;15.77;7.80;;;;;;;14.81;46.21;99741.09;5093294;28;20282;-60
2022/10/19 07:59:07;;;;;;;12.03;7.97;;;;;;;14.78;47.34;99735.19;5093091;28;20221;-61
2022/10/19 08:01:40;;;;;;;11.97;7.00;;;;;;;14.98;46.28;99736.94;5093248;28;20205;-61
2022/10/19 08:04:07;;;;;;;12.57;6.63;;;;;;;14.90;46.21;99732.00;5093107;28;20569;-60
2022/10/19 08:06:35;;;;;;;8.43;6.97;;;;;;;14.97;45.65;99730.84;5091492;28;20199;-60
2022/10/19 08:09:03;;;;;;;15.07;8.97;;;;;;;14.82;46.02;99703.59;5092186;28;20215;-61
2022/10/19 08:11:32;;;;;;;12.37;7.63;;;;;;;14.88;46.47;99726.88;5093003;28;20191;-60
2022/10/19 08:14:01;;;;;;;7.90;6.53;;;;;;;15.01;45.67;99721.13;5091143;28;20190;-60
2022/10/19 08:16:31;;;;;;;11.80;6.77;;;;;;;15.02;45.14;99721.03;5091644;28;20200;-60
2022/10/19 08:19:01;;;;;;;8.53;5.73;;;;;;;15.09;45.30;99719.00;5091430;28;20601;-60
2022/10/19 08:21:30;;;;;;;8.80;6.77;;;;;;;15.12;45.34;99719.72;5089359;28;20698;-55
2022/10/19 08:23:57;;;;;;;12.63;6.67;;;;;;;15.13;45.58;99705.72;5091167;28;20209;-54
2022/10/19 08:26:25;;;;;;;11.27;7.27;;;;;;;15.12;45.19;99711.88;5088708;28;20197;-55
2022/10/19 08:28:52;;;;;;;16.67;6.57;;;;;;;15.12;45.14;99704.03;5092610;28;20703;-55
2022/10/19 08:31:20;;;;;;;7.47;6.77;;;;;;;15.03;45.53;99688.75;5091780;28;20195;-55
2022/10/19 08:33:49;;;;;;;6.63;5.93;;;;;;;15.10;45.75;99684.13;5092287;28;20286;-55
2022/10/19 08:36:20;;;;;;;10.53;7.27;;;;;;;15.01;45.96;99693.19;5092632;28;20286;-54
2022/10/19 08:38:47;;;;;;;15.40;8.37;;;;;;;15.08;45.59;99693.78;5092521;28;20688;-54
2022/10/19 08:41:23;;;;;;;11.23;7.00;;;;;;;15.15;45.25;99687.34;5092388;28;20303;-56
2022/10/19 08:44:03;;;;;;;9.13;7.50;;;;;;;15.26;45.39;99690.34;5092298;28;20226;-54
2022/10/19 08:46:39;;;;;;;9.07;6.40;;;;;;;15.26;45.81;99685.97;5092348;28;20198;-60
2022/10/19 08:49:09;;;;;;;6.67;5.70;;;;;;;15.20;45.65;99685.41;5092076;28;20254;-59
2022/10/19 08:51:40;;;;;;;7.63;6.73;;;;;;;15.24;45.75;99679.94;5092176;28;20230;-60
2022/10/19 08:54:15;;;;;;;8.47;6.57;;;;;;;15.35;45.45;99673.41;5092095;28;20285;-61
2022/10/19 08:56:49;;;;;;;6.93;6.23;;;;;;;15.44;45.00;99673.81;5092328;28;20244;-61
2022/10/19 08:59:26;;;;;;;19.60;6.53;;;;;;;15.51;45.06;99670.00;5091565;28;20581;-61
2022/10/19 09:01:56;;;;;;;10.10;6.10;;;;;;;15.67;45.38;99670.16;5091675;28;20203;-61
2022/10/19 09:04:28;;;;;;;8.93;6.00;;;;;;;15.70;44.65;99683.09;5092038;28;20238;-54
2022/10/19 09:07:22;;;;;;;9.40;5.80;;;;;;;15.72;44.62;99677.78;5091755;28;20282;-56
2022/10/19 09:09:51;;;;;;;25.17;14.80;;;;;;;15.80;45.12;99676.50;5091609;28;20226;-54
2022/10/19 09:12:31;;;;;;;23.87;14.07;;;;;;;15.79;44.86;99669.59;5091981;28;20593;-54
2022/10/19 09:15:01;;;;;;;11.00;7.87;;;;;;;15.86;44.36;99670.13;5091679;28;21001;-54
2022/10/19 09:17:28;;;;;;;16.37;8.20;;;;;;;15.85;44.30;99665.81;5092312;28;20678;-54
2022/10/19 09:19:56;;;;;;;12.17;6.73;;;;;;;15.93;44.64;99664.53;5091491;28;20207;-55
2022/10/19 09:22:32;;;;;;;9.13;5.97;;;;;;;15.96;44.36;99643.44;5091384;28;20286;-54
2022/10/19 09:25:01;;;;;;;11.53;6.67;;;;;;;16.12;43.64;99658.41;5091591;28;20245;-54
2022/10/19 09:27:36;;;;;;;11.60;6.50;;;;;;;16.21;43.30;99656.19;5091597;28;20701;-55
2022/10/19 09:30:06;;;;;;;11.30;6.40;;;;;;;16.30;42.85;99654.88;5091334;28;20215;-54
2022/10/19 09:32:35;;;;;;;8.17;6.60;;;;;;;16.27;43.27;99655.00;5091542;28;20202;-54
2022/10/19 09:35:05;;;;;;;9.53;6.43;;;;;;;16.19;42.98;99647.53;5091211;28;20202;-54
2022/10/19 09:37:40;;;;;;;7.87;5.73;;;;;;;16.23;42.89;99646.47;5091661;28;20199;-54
2022/10/19 09:40:15;;;;;;;10.07;7.00;;;;;;;16.29;42.47;99635.69;5091500;28;20588;-55
2022/10/19 09:42:42;;;;;;;9.23;6.67;;;;;;;16.27;42.72;99618.34;5090659;28;20198;-61
2022/10/19 09:45:19;;;;;;;7.73;5.83;;;;;;;16.29;42.31;99596.41;5089885;28;20210;-61
2022/10/19 09:47:48;;;;;;;10.03;6.30;;;;;;;16.50;42.30;99625.88;5090489;28;20199;-54
2022/10/19 09:50:19;;;;;;;10.00;5.63;;;;;;;16.55;41.81;99623.88;5091121;28;20200;-61
2022/10/19 09:52:48;;;;;;;7.00;5.77;;;;;;;16.52;41.92;99605.69;5090921;28;20231;-55
2022/10/19 09:55:38;;;;;;;11.57;7.07;;;;;;;16.83;40.99;99617.22;5090913;28;20677;-55
2022/10/19 09:58:15;;;;;;;8.13;6.13;;;;;;;16.98;41.78;99617.28;5080053;28;20713;-55
2022/10/19 10:00:44;;;;;;;9.23;6.20;;;;;;;17.14;41.84;99613.84;5090397;28;20305;-54
2022/10/19 10:03:24;;;;;;;11.77;6.83;;;;;;;17.16;41.47;99610.19;5089528;28;20617;-59
2022/10/19 10:05:51;;;;;;;10.67;5.90;;;;;;;17.30;40.97;99609.44;5087370;28;20226;-59
2022/10/19 10:08:24;;;;;;;8.17;5.60;;;;;;;17.33;40.53;99596.16;5088486;28;20585;-59
2022/10/19 10:10:57;;;;;;;13.53;5.60;;;;;;;17.39;40.52;99603.66;5069473;28;20297;-59
2022/10/19 10:13:26;;;;;;;9.83;5.80;;;;;;;17.42;39.69;99595.63;5069759;28;20597;-54
2022/10/19 10:15:57;;;;;;;8.40;5.90;;;;;;;17.51;40.69;99603.00;5070454;28;20204;-54
2022/10/19 10:18:25;;;;;;;17.90;7.20;;;;;;;17.59;40.57;99598.19;5070058;28;20214;-55
2022/10/19 10:21:04;;;;;;;11.30;5.90;;;;;;;17.64;39.60;99596.16;5070225;28;20206;-55
2022/10/19 10:23:35;;;;;;;10.43;5.87;;;;;;;17.72;39.30;99583.44;5070185;28;20283;-55
2022/10/19 10:26:03;;;;;;;8.93;6.23;;;;;;;17.76;39.21;99579.72;5070223;28;20282;-55
2022/10/19 10:28:30;;;;;;;5.93;5.53;;;;;;;17.82;38.79;99573.28;5069969;28;20219;-54
2022/10/19 10:31:03;;;;;;;9.75;5.88;;;;;;;17.86;39.04;99569.53;5069910;28;20829;-55
2022/10/19 10:33:32;;;;;;;8.47;4.43;;;;;;;17.90;39.04;99562.34;5069904;28;20202;-55
2022/10/19 10:36:04;;;;;;;5.75;5.13;;;;;;;17.94;38.82;99561.22;5069698;28;20282;-55
2022/10/19 10:38:35;;;;;;;10.85;5.28;;;;;;;17.80;38.51;99521.78;5069740;28;20283;-55
2022/10/19 10:41:10;;;;;;;8.15;5.30;;;;;;;17.99;37.98;99543.41;5069780;28;20284;-54
2022/10/19 10:43:49;;;;;;;6.95;4.78;;;;;;;18.04;37.97;99539.59;5069759;28;20199;-55
2022/10/19 10:46:20;;;;;;;10.15;5.18;;;;;;;18.08;38.28;99541.09;5075533;28;20294;-55
2022/10/19 10:48:55;;;;;;;11.68;5.35;;;;;;;18.21;38.24;99535.09;5085900;28;20314;-55
2022/10/19 10:51:33;;;;;;;7.28;5.15;;;;;;;18.24;38.54;99529.66;5086271;28;20248;-55
2022/10/19 10:54:18;;;;;;;7.32;5.20;;;;;;;18.36;38.02;99528.94;5085790;28;20618;-55
2022/10/19 10:56:58;;;;;;;8.48;5.60;;;;;;;18.40;38.10;99522.53;5085430;28;20191;-56
2022/10/19 10:59:30;;;;;;;8.00;5.13;;;;;;;18.44;38.01;99513.53;5086833;28;20278;-55
2022/10/19 11:02:02;;;;;;;8.55;5.07;;;;;;;18.46;37.75;99520.41;5089449;28;20213;-55
2022/10/19 11:04:32;;;;;;;5.53;5.03;;;;;;;18.51;37.58;99510.44;5089525;28;20314;-56
2022/10/19 11:07:08;;;;;;;6.63;4.53;;;;;;;18.56;37.64;99511.94;5088724;28;20199;-55
2022/10/19 11:09:42;;;;;;;14.70;7.18;;;;;;;18.62;37.96;99508.97;5088424;28;20226;-55
2022/10/19 11:12:14;;;;;;;8.18;4.55;;;;;;;18.69;37.34;99499.78;5085963;28;20199;-56
2022/10/19 11:14:48;;;;;;;5.15;4.28;;;;;;;18.82;37.20;99504.16;5088290;28;20192;-55
2022/10/19 11:17:21;;;;;;;9.30;4.60;;;;;;;18.90;37.05;99506.31;5088002;28;20195;-56
2022/10/19 11:19:50;;;;;;;9.70;4.80;;;;;;;18.97;37.00;99502.34;5085882;28;20202;-55
2022/10/19 11:22:27;;;;;;;5.70;4.53;;;;;;;19.02;36.62;99502.06;5088182;28;20200;-60
2022/10/19 11:25:15;;;;;;;10.18;4.13;;;;;;;19.08;36.26;99493.75;5088170;28;20199;-61
2022/10/19 11:27:55;;;;;;;12.35;4.50;;;;;;;19.09;36.61;99490.19;5088200;28;20783;-60
2022/10/19 11:30:24;;;;;;;8.00;4.60;;;;;;;19.17;36.47;99487.94;5085389;28;20675;-61
2022/10/19 11:33:01;;;;;;;6.93;5.18;;;;;;;19.15;36.42;99484.56;5089240;28;20201;-61
2022/10/19 11:35:39;;;;;;;7.38;4.47;;;;;;;19.15;35.92;99480.13;5088575;28;20193;-61
2022/10/19 11:38:21;;;;;;;5.93;3.88;;;;;;;19.26;35.50;99476.81;5086214;28;20286;-61
2022/10/19 11:40:58;;;;;;;5.10;4.20;;;;;;;19.22;35.49;99454.25;5088165;28;20198;-60
2022/10/19 11:43:34;;;;;;;4.47;4.07;;;;;;;19.35;35.61;99463.03;5086127;28;20187;-60